TimeCST,TemperatureF,Dew PointF,Humidity,Sea Level PressureIn,VisibilityMPH,Wind Direction,Wind SpeedMPH,Gust SpeedMPH,PrecipitationIn,Events,Conditions,WindDirDegrees,DateUTC
12:35 AM,24.8,15.8,69,29.87,10.0,SE,24.2,34.5,N/A,,Clear,130,2012-02-26 06:35:00
12:55 AM,24.8,17.6,74,29.84,10.0,SE,25.3,33.4,N/A,,Clear,130,2012-02-26 06:55:00
1:15 AM,24.8,17.6,74,29.81,10.0,SE,26.5,34.5,N/A,,Clear,130,2012-02-26 07:15:00
1:35 AM,24.8,17.6,74,29.80,10.0,SE,27.6,35.7,N/A,,Clear,130,2012-02-26 07:35:00
1:55 AM,26.6,17.6,69,29.80,10.0,SE,33.4,39.1,N/A,,Clear,130,2012-02-26 07:55:00
2:15 AM,26.6,17.6,69,29.79,10.0,SE,27.6,35.7,N/A,,Clear,140,2012-02-26 08:15:00
2:35 AM,26.6,17.6,69,29.76,10.0,SE,23.0,34.5,N/A,,Clear,140,2012-02-26 08:35:00
2:55 AM,26.6,17.6,69,29.75,10.0,SE,23.0,32.2,N/A,,Clear,140,2012-02-26 08:55:00
3:15 AM,28.4,19.4,69,29.73,10.0,SE,27.6,42.6,N/A,,Clear,140,2012-02-26 09:15:00
3:35 AM,28.4,19.4,69,29.73,10.0,SE,26.5,35.7,N/A,,Clear,140,2012-02-26 09:35:00
3:55 AM,28.4,19.4,69,29.71,10.0,SSE,23.0,29.9,N/A,,Clear,150,2012-02-26 09:55:00
4:35 AM,28.4,19.4,69,29.68,10.0,SSE,29.9,35.7,N/A,,Clear,150,2012-02-26 10:35:00
4:55 AM,28.4,19.4,69,29.66,10.0,SSE,27.6,39.1,N/A,,Clear,150,2012-02-26 10:55:00
5:15 AM,28.4,19.4,69,29.66,10.0,SSE,28.8,34.5,N/A,,Clear,150,2012-02-26 11:15:00
5:35 AM,28.4,19.4,69,29.65,10.0,SSE,25.3,32.2,N/A,,Clear,150,2012-02-26 11:35:00
5:55 AM,28.4,19.4,69,29.65,10.0,SSE,21.9,26.5,N/A,,Clear,160,2012-02-26 11:55:00
6:35 AM,30.2,21.2,69,29.65,10.0,South,21.9,31.1,N/A,,Clear,170,2012-02-26 12:35:00
7:15 AM,30.2,24.8,80,29.65,10.0,South,26.5,29.9,N/A,,Clear,170,2012-02-26 13:15:00
7:35 AM,30.2,24.8,80,29.65,10.0,South,19.6,26.5,N/A,,Clear,190,2012-02-26 13:35:00
7:55 AM,32.0,24.8,75,29.66,10.0,South,20.7,-,N/A,,Clear,190,2012-02-26 13:55:00
8:15 AM,32.0,26.6,80,29.66,10.0,South,20.7,-,N/A,,Clear,190,2012-02-26 14:15:00
8:55 AM,35.6,26.6,70,29.67,10.0,SSW,17.3,-,N/A,,Clear,210,2012-02-26 14:55:00
9:15 AM,37.4,28.4,70,29.68,10.0,SW,18.4,-,N/A,,Clear,220,2012-02-26 15:15:00
9:35 AM,37.4,30.2,75,29.69,10.0,SW,20.7,27.6,N/A,,Scattered Clouds,230,2012-02-26 15:35:00
9:55 AM,39.2,30.2,70,29.69,10.0,SW,23.0,-,N/A,,Scattered Clouds,220,2012-02-26 15:55:00
10:15 AM,39.2,30.2,70,29.68,10.0,SW,18.4,28.8,N/A,,Clear,230,2012-02-26 16:15:00
10:35 AM,41.0,30.2,65,29.71,10.0,WSW,21.9,32.2,N/A,,Scattered Clouds,240,2012-02-26 16:35:00
10:55 AM,39.2,30.2,70,29.72,10.0,SW,25.3,34.5,N/A,,Mostly Cloudy,230,2012-02-26 16:55:00
11:15 AM,39.2,30.2,70,29.74,10.0,WSW,28.8,35.7,N/A,,Overcast,240,2012-02-26 17:15:00
11:35 AM,39.2,28.4,65,29.75,10.0,WSW,34.5,46.0,N/A,,Overcast,250,2012-02-26 17:35:00
11:55 AM,39.2,28.4,65,29.75,10.0,WSW,33.4,47.2,N/A,,Scattered Clouds,250,2012-02-26 17:55:00
12:15 PM,39.2,28.4,65,29.76,10.0,WSW,31.1,44.9,N/A,,Clear,250,2012-02-26 18:15:00
12:35 PM,39.2,28.4,65,29.77,10.0,WSW,36.8,49.5,N/A,,Clear,250,2012-02-26 18:35:00
12:55 PM,39.2,28.4,65,29.77,10.0,WSW,36.8,51.8,N/A,,Clear,250,2012-02-26 18:55:00
1:15 PM,39.2,26.6,61,29.78,10.0,WSW,41.4,48.3,N/A,,Clear,250,2012-02-26 19:15:00
1:35 PM,39.2,24.8,56,29.79,10.0,WSW,40.3,49.5,N/A,,Clear,250,2012-02-26 19:35:00
1:55 PM,39.2,26.6,61,29.80,10.0,WSW,39.1,48.3,N/A,,Clear,250,2012-02-26 19:55:00
2:15 PM,37.4,24.8,60,29.81,10.0,WSW,38.0,49.5,N/A,,Clear,250,2012-02-26 20:15:00
2:35 PM,37.4,24.8,60,29.82,10.0,West,38.0,43.7,N/A,,Clear,260,2012-02-26 20:35:00
2:55 PM,35.6,24.8,65,29.84,10.0,West,33.4,47.2,N/A,,Clear,260,2012-02-26 20:55:00
3:15 PM,35.6,24.8,65,29.86,10.0,West,36.8,47.2,N/A,,Clear,260,2012-02-26 21:15:00
3:35 PM,35.6,24.8,65,29.87,10.0,West,38.0,46.0,N/A,,Clear,260,2012-02-26 21:35:00
3:55 PM,33.8,23.0,65,29.88,10.0,West,40.3,47.2,N/A,,Clear,260,2012-02-26 21:55:00
4:15 PM,33.8,23.0,65,29.89,10.0,West,33.4,42.6,N/A,,Clear,270,2012-02-26 22:15:00
4:35 PM,33.8,23.0,65,29.91,10.0,West,32.2,42.6,N/A,,Clear,270,2012-02-26 22:35:00
4:55 PM,33.8,21.2,60,29.92,10.0,West,28.8,39.1,N/A,,Clear,270,2012-02-26 22:55:00
5:15 PM,33.8,21.2,60,29.93,10.0,West,27.6,38.0,N/A,,Clear,280,2012-02-26 23:15:00
5:35 PM,32.0,23.0,69,29.94,10.0,West,23.0,29.9,N/A,,Clear,280,2012-02-26 23:35:00
5:55 PM,30.2,19.4,64,29.96,10.0,West,34.5,47.2,N/A,,Clear,280,2012-02-26 23:55:00
6:15 PM,30.2,19.4,64,29.98,10.0,West,25.3,35.7,N/A,,Clear,270,2012-02-27 00:15:00
6:35 PM,28.4,19.4,69,29.99,10.0,West,29.9,38.0,N/A,,Clear,280,2012-02-27 00:35:00
6:55 PM,28.4,19.4,69,30.01,10.0,West,25.3,32.2,N/A,,Clear,270,2012-02-27 00:55:00
7:15 PM,28.4,19.4,69,30.02,10.0,West,21.9,28.8,N/A,,Clear,270,2012-02-27 01:15:00
7:35 PM,28.4,19.4,69,30.03,10.0,West,23.0,34.5,N/A,,Clear,270,2012-02-27 01:35:00
7:55 PM,28.4,17.6,64,30.03,10.0,West,24.2,28.8,N/A,,Clear,270,2012-02-27 01:55:00
8:15 PM,26.6,19.4,74,30.04,10.0,WNW,23.0,31.1,N/A,,Clear,290,2012-02-27 02:15:00
8:35 PM,26.6,17.6,69,30.05,10.0,West,25.3,29.9,N/A,,Clear,280,2012-02-27 02:35:00
8:55 PM,26.6,17.6,69,30.06,10.0,West,23.0,27.6,N/A,,Clear,280,2012-02-27 02:55:00
9:15 PM,26.6,17.6,69,30.07,10.0,West,26.5,29.9,N/A,,Clear,270,2012-02-27 03:15:00
9:35 PM,24.8,17.6,74,30.08,10.0,West,21.9,-,N/A,,Clear,280,2012-02-27 03:35:00
9:55 PM,24.8,17.6,74,30.09,10.0,West,17.3,25.3,N/A,,Clear,280,2012-02-27 03:55:00
10:15 PM,24.8,17.6,74,30.10,10.0,West,17.3,-,N/A,,Clear,270,2012-02-27 04:15:00
10:35 PM,24.8,17.6,74,30.11,10.0,West,21.9,28.8,N/A,,Clear,270,2012-02-27 04:35:00
10:55 PM,23.0,17.6,80,30.12,10.0,West,19.6,-,N/A,,Clear,270,2012-02-27 04:55:00
11:15 PM,23.0,17.6,80,30.12,10.0,West,20.7,-,N/A,,Clear,270,2012-02-27 05:15:00
11:35 PM,21.2,15.8,80,30.13,10.0,West,19.6,27.6,N/A,,Clear,270,2012-02-27 05:35:00
11:55 PM,21.2,15.8,80,30.14,10.0,West,20.7,28.8,N/A,,Clear,270,2012-02-27 05:55:00